Time;durP1;ratioP1;P1;durP2;ratioP2;P2;SDS_P1;SDS_P2;PMS_P1;PMS_P2;Temp;Humidity;BMP_temperature;BMP_pressure;BME280_temperature;BME280_humidity;BME280_pressure;Samples;Min_cycle;Max_cycle;Signal;HPM_P1;HPM_P2
2023/03/27 00:00:20;;;;;;;2.70;1.13;;;9.50;99.90;;;;;;5095891;28;20207;-56
2023/03/27 00:02:48;;;;;;;1.83;0.90;;;9.40;99.90;;;;;;5095922;28;20211;-56
2023/03/27 00:05:19;;;;;;;1.87;1.00;;;9.30;99.90;;;;;;5096285;28;20211;-57
2023/03/27 00:07:47;;;;;;;1.50;1.07;;;9.20;99.90;;;;;;5095845;28;20250;-57
2023/03/27 00:10:14;;;;;;;3.03;1.40;;;9.20;99.90;;;;;;5096151;28;20303;-58
2023/03/27 00:12:42;;;;;;;3.57;1.50;;;9.20;99.90;;;;;;5095784;28;20668;-57
2023/03/27 00:15:14;;;;;;;1.70;1.07;;;9.30;99.90;;;;;;5095669;28;20500;-57
2023/03/27 00:17:43;;;;;;;1.97;1.00;;;9.40;99.90;;;;;;5095609;28;20694;-57
2023/03/27 00:20:10;;;;;;;0.97;0.70;;;9.40;99.90;;;;;;5096011;28;20210;-58
2023/03/27 00:22:38;;;;;;;1.07;0.70;;;9.40;99.90;;;;;;5095494;28;20242;-57
2023/03/27 00:25:05;;;;;;;1.10;0.77;;;9.30;99.90;;;;;;5095577;28;20204;-57
2023/03/27 00:27:32;;;;;;;1.10;0.80;;;9.30;99.90;;;;;;5095529;28;20247;-57
2023/03/27 00:29:59;;;;;;;0.60;0.60;;;9.20;99.90;;;;;;5095395;28;20259;-57
2023/03/27 00:32:25;;;;;;;0.70;0.70;;;9.20;99.90;;;;;;5095365;28;20250;-57
2023/03/27 00:34:52;;;;;;;0.70;0.70;;;9.00;99.90;;;;;;5095411;28;20200;-57
2023/03/27 00:37:19;;;;;;;1.37;0.70;;;8.90;99.90;;;;;;5095743;28;20250;-57
2023/03/27 00:39:49;;;;;;;0.90;0.70;;;8.80;99.90;;;;;;5095586;28;20215;-57
2023/03/27 00:42:21;;;;;;;0.73;0.70;;;8.70;99.90;;;;;;5095646;28;20207;-57
2023/03/27 00:44:50;;;;;;;0.80;0.80;;;8.60;99.90;;;;;;5095310;28;20212;-57
2023/03/27 00:47:19;;;;;;;0.90;0.90;;;8.60;99.90;;;;;;5095000;28;20263;-58
2023/03/27 00:49:49;;;;;;;1.00;0.90;;;8.50;99.90;;;;;;5095167;28;20265;-57
2023/03/27 00:52:18;;;;;;;2.20;0.90;;;8.40;99.90;;;;;;5094875;28;20753;-57
2023/03/27 00:54:47;;;;;;;1.00;0.83;;;8.40;99.90;;;;;;5094843;28;20207;-57
2023/03/27 00:57:18;;;;;;;0.73;0.60;;;8.30;99.90;;;;;;5095120;28;20261;-57
2023/03/27 00:59:48;;;;;;;0.30;0.30;;;8.20;99.90;;;;;;5095137;28;20635;-57
2023/03/27 01:02:17;;;;;;;1.07;0.30;;;8.10;99.90;;;;;;5094916;28;20196;-56
2023/03/27 01:04:45;;;;;;;0.67;0.47;;;8.00;99.90;;;;;;5094693;28;20215;-57
2023/03/27 01:07:14;;;;;;;0.20;0.20;;;7.90;99.90;;;;;;5095129;28;20662;-55
2023/03/27 01:09:41;;;;;;;0.60;0.40;;;7.80;99.90;;;;;;5094747;28;20204;-56
2023/03/27 01:12:21;;;;;;;0.50;0.30;;;7.70;99.90;;;;;;5094714;28;20228;-56
2023/03/27 01:15:04;;;;;;;0.30;0.30;;;7.50;99.90;;;;;;5094686;28;20208;-56
2023/03/27 01:17:43;;;;;;;0.50;0.50;;;7.50;99.90;;;;;;5094698;28;20525;-56
2023/03/27 01:20:39;;;;;;;1.10;0.50;;;7.40;99.90;;;;;;5094888;28;20204;-56
2023/03/27 01:23:40;;;;;;;0.67;0.40;;;7.30;99.90;;;;;;5094550;28;20208;-56
2023/03/27 01:26:33;;;;;;;0.90;0.60;;;7.10;99.90;;;;;;5094533;28;20224;-56
2023/03/27 01:29:08;;;;;;;0.70;0.70;;;7.00;99.90;;;;;;5094535;28;20679;-56
2023/03/27 01:31:54;;;;;;;1.27;0.80;;;7.00;99.90;;;;;;5095008;28;20203;-56
2023/03/27 01:34:43;;;;;;;1.60;1.00;;;7.00;99.90;;;;;;5094486;28;20204;-56
2023/03/27 01:37:31;;;;;;;0.67;0.67;;;6.90;99.90;;;;;;5095070;28;20228;-56
2023/03/27 01:40:04;;;;;;;0.83;0.60;;;6.90;99.90;;;;;;5095182;28;20200;-57
2023/03/27 01:42:34;;;;;;;1.03;0.70;;;6.90;99.90;;;;;;5094855;28;20203;-56
2023/03/27 01:45:05;;;;;;;1.30;0.83;;;6.90;99.90;;;;;;5094664;28;20199;-57
2023/03/27 01:47:41;;;;;;;1.40;0.80;;;6.80;99.90;;;;;;5095777;28;20597;-56
2023/03/27 01:50:15;;;;;;;1.03;0.90;;;6.80;99.90;;;;;;5094879;28;20204;-55
2023/03/27 01:52:45;;;;;;;1.27;0.83;;;6.70;99.90;;;;;;5094577;28;20645;-56
2023/03/27 01:55:18;;;;;;;1.40;0.97;;;6.70;99.90;;;;;;5094633;28;20208;-56
2023/03/27 01:57:49;;;;;;;2.83;1.23;;;6.60;99.90;;;;;;5094614;28;20232;-56
2023/03/27 02:00:20;;;;;;;2.40;1.30;;;6.70;99.90;;;;;;5094461;28;20579;-56
2023/03/27 02:02:51;;;;;;;2.57;1.20;;;6.70;99.90;;;;;;5093772;28;20208;-56
2023/03/27 02:05:22;;;;;;;2.10;1.30;;;6.60;99.90;;;;;;5094277;28;20207;-57
2023/03/27 02:07:54;;;;;;;2.43;1.27;;;6.60;99.90;;;;;;5094011;28;20235;-55
2023/03/27 02:10:26;;;;;;;2.07;1.50;;;6.60;99.90;;;;;;5093815;28;20668;-56
2023/03/27 02:12:57;;;;;;;2.67;1.50;;;6.60;99.90;;;;;;5093738;28;20220;-56
2023/03/27 02:15:29;;;;;;;2.50;1.50;;;6.50;99.90;;;;;;5092985;28;20208;-56
2023/03/27 02:18:03;;;;;;;2.13;1.57;;;6.40;99.90;;;;;;5093320;28;20220;-57
2023/03/27 02:20:31;;;;;;;2.70;1.60;;;6.40;99.90;;;;;;5093267;28;20207;-56
2023/03/27 02:23:00;;;;;;;2.90;2.07;;;6.30;99.90;;;;;;5093218;28;20223;-56
2023/03/27 02:25:31;;;;;;;2.30;1.53;;;6.30;99.90;;;;;;5092957;28;20484;-56
2023/03/27 02:28:12;;;;;;;2.73;1.90;;;6.30;99.90;;;;;;5093167;28;20229;-56
2023/03/27 02:30:45;;;;;;;2.47;1.70;;;6.30;99.90;;;;;;5092939;28;20644;-56
2023/03/27 02:33:22;;;;;;;2.10;1.73;;;6.20;99.90;;;;;;5092920;28;20230;-56
2023/03/27 02:35:57;;;;;;;2.53;1.67;;;6.10;99.90;;;;;;5092959;28;20208;-57
2023/03/27 02:38:30;;;;;;;2.43;1.50;;;6.10;99.90;;;;;;5093056;28;20211;-56
2023/03/27 02:41:08;;;;;;;1.43;1.30;;;6.00;99.90;;;;;;5092639;28;20684;-56
2023/03/27 02:43:42;;;;;;;2.53;1.70;;;6.00;99.90;;;;;;5092827;28;20210;-56
2023/03/27 02:46:14;;;;;;;2.37;1.80;;;6.00;99.90;;;;;;5092729;28;20232;-56
2023/03/27 02:48:44;;;;;;;2.57;1.70;;;6.10;99.90;;;;;;5092811;28;20295;-57
2023/03/27 02:51:17;;;;;;;3.53;1.60;;;6.10;99.90;;;;;;5092707;28;20204;-56
2023/03/27 02:53:50;;;;;;;2.07;1.60;;;6.10;99.90;;;;;;5092465;28;20228;-56
2023/03/27 02:56:21;;;;;;;1.60;1.50;;;6.20;99.90;;;;;;5092838;28;20251;-56
2023/03/27 02:58:51;;;;;;;1.90;1.40;;;6.10;99.90;;;;;;5092780;28;20208;-55
2023/03/27 03:01:21;;;;;;;2.43;1.50;;;6.10;99.90;;;;;;5092590;28;20206;-56
2023/03/27 03:03:53;;;;;;;2.53;1.60;;;6.10;99.90;;;;;;5092328;28;20279;-56
2023/03/27 03:06:21;;;;;;;3.00;1.60;;;6.00;99.90;;;;;;5092888;28;20715;-56
2023/03/27 03:08:49;;;;;;;2.77;1.43;;;6.00;99.90;;;;;;5092764;28;20212;-56
2023/03/27 03:11:16;;;;;;;3.67;1.50;;;6.00;99.90;;;;;;5092677;28;20208;-56
2023/03/27 03:13:44;;;;;;;3.70;1.60;;;5.90;99.90;;;;;;5092133;28;20768;-56
2023/03/27 03:16:11;;;;;;;4.83;1.20;;;5.90;99.90;;;;;;5092849;28;20224;-56
2023/03/27 03:18:37;;;;;;;5.10;1.63;;;5.80;99.90;;;;;;5092431;28;20211;-57
2023/03/27 03:21:05;;;;;;;3.03;1.40;;;5.70;99.90;;;;;;5092891;28;20208;-56
2023/03/27 03:23:31;;;;;;;5.87;1.50;;;5.80;99.90;;;;;;5092642;28;20196;-56
2023/03/27 03:25:58;;;;;;;5.13;1.77;;;5.70;99.90;;;;;;5092230;28;20232;-56
2023/03/27 03:28:25;;;;;;;3.87;1.60;;;5.70;99.90;;;;;;5092270;28;20208;-56
2023/03/27 03:30:54;;;;;;;5.60;2.03;;;5.60;99.90;;;;;;5092136;28;20204;-56
2023/03/27 03:33:21;;;;;;;4.67;1.60;;;5.50;99.90;;;;;;5091944;28;20599;-56
2023/03/27 03:35:49;;;;;;;8.93;1.67;;;5.40;99.90;;;;;;5092389;28;20211;-56
2023/03/27 03:38:23;;;;;;;5.23;1.80;;;5.30;99.90;;;;;;5092396;28;20207;-55
2023/03/27 03:40:52;;;;;;;6.03;2.00;;;5.10;99.90;;;;;;5092212;28;20242;-55
2023/03/27 03:43:19;;;;;;;9.73;1.70;;;4.90;99.90;;;;;;5091927;28;20579;-55
2023/03/27 03:45:46;;;;;;;6.97;1.67;;;4.90;99.90;;;;;;5091942;28;20624;-56
2023/03/27 03:48:14;;;;;;;6.43;2.40;;;4.90;99.90;;;;;;5092333;28;20286;-56
2023/03/27 03:50:41;;;;;;;4.30;1.63;;;4.90;99.90;;;;;;5091916;28;20211;-56
2023/03/27 03:53:07;;;;;;;5.10;1.80;;;4.90;99.90;;;;;;5091819;28;20228;-55
2023/03/27 03:55:34;;;;;;;8.40;1.70;;;4.90;99.90;;;;;;5092166;28;20216;-56
2023/03/27 03:58:01;;;;;;;6.90;1.83;;;4.90;99.90;;;;;;5091873;28;20651;-57
2023/03/27 04:00:28;;;;;;;6.47;1.83;;;4.90;99.90;;;;;;5091787;28;20212;-56
2023/03/27 04:02:55;;;;;;;9.67;1.87;;;5.00;99.90;;;;;;5092176;28;20200;-56
2023/03/27 04:05:23;;;;;;;5.50;1.70;;;5.00;99.90;;;;;;5091958;28;20204;-56
2023/03/27 04:07:50;;;;;;;7.90;1.70;;;5.10;99.90;;;;;;5091619;28;20228;-56
2023/03/27 04:10:17;;;;;;;6.07;1.70;;;5.10;99.90;;;;;;5092212;28;20204;-56
2023/03/27 04:12:47;;;;;;;5.97;2.03;;;5.10;99.90;;;;;;5091805;28;20211;-56
2023/03/27 04:15:14;;;;;;;6.80;2.07;;;5.10;99.90;;;;;;5092349;28;20261;-56
2023/03/27 04:17:41;;;;;;;5.40;2.43;;;5.20;99.90;;;;;;5091926;28;20232;-56
2023/03/27 04:20:08;;;;;;;8.87;1.77;;;5.20;99.90;;;;;;5092170;28;20204;-56
2023/03/27 04:22:37;;;;;;;7.67;2.23;;;5.10;99.90;;;;;;5091871;28;20211;-56
2023/03/27 04:25:05;;;;;;;5.20;1.67;;;5.00;99.90;;;;;;5091725;28;20200;-56
2023/03/27 04:27:31;;;;;;;9.93;1.97;;;5.00;99.90;;;;;;5092031;28;20224;-56
2023/03/27 04:29:58;;;;;;;8.20;2.10;;;5.00;99.90;;;;;;5091893;28;20211;-56
2023/03/27 04:32:25;;;;;;;8.37;2.23;;;5.10;99.90;;;;;;5092121;28;20211;-56
2023/03/27 04:34:53;;;;;;;7.57;2.17;;;5.10;99.90;;;;;;5091719;28;20250;-56
2023/03/27 04:37:21;;;;;;;6.00;1.80;;;5.20;99.90;;;;;;5092619;28;20820;-56
2023/03/27 04:39:49;;;;;;;4.43;1.50;;;5.10;99.90;;;;;;5095314;28;20291;-56
2023/03/27 04:42:16;;;;;;;6.63;2.37;;;5.10;99.90;;;;;;5095248;28;20207;-56
2023/03/27 04:44:45;;;;;;;5.70;1.93;;;5.00;99.90;;;;;;5095246;28;20203;-55
2023/03/27 04:47:12;;;;;;;9.23;2.20;;;4.90;99.90;;;;;;5095416;28;20241;-55
2023/03/27 04:49:42;;;;;;;7.27;2.27;;;4.90;99.90;;;;;;5095344;28;20213;-56
2023/03/27 04:52:12;;;;;;;7.33;2.07;;;5.00;99.90;;;;;;5095019;28;20574;-56
2023/03/27 04:54:40;;;;;;;9.00;1.63;;;5.00;99.90;;;;;;5094852;28;20234;-55
2023/03/27 04:57:09;;;;;;;4.87;1.83;;;4.90;99.90;;;;;;5095152;28;20645;-55
2023/03/27 04:59:36;;;;;;;5.97;2.00;;;4.90;99.90;;;;;;5095140;28;20208;-56
2023/03/27 05:02:05;;;;;;;4.47;1.67;;;4.90;99.90;;;;;;5095126;28;20211;-56
2023/03/27 05:04:33;;;;;;;8.63;1.80;;;4.90;99.90;;;;;;5094651;28;20562;-56
2023/03/27 05:07:01;;;;;;;7.17;2.30;;;4.90;99.90;;;;;;5094473;28;20307;-56
2023/03/27 05:09:28;;;;;;;6.03;2.20;;;5.00;99.90;;;;;;5095041;28;20250;-56
2023/03/27 05:11:54;;;;;;;8.70;1.73;;;4.90;99.90;;;;;;5094586;28;20211;-55
2023/03/27 05:14:23;;;;;;;7.80;1.67;;;4.90;99.90;;;;;;5094265;28;20220;-55
2023/03/27 05:16:51;;;;;;;10.93;2.10;;;4.90;99.90;;;;;;5094387;28;20224;-55
2023/03/27 05:19:18;;;;;;;7.23;2.03;;;4.80;99.90;;;;;;5094524;28;20289;-56
2023/03/27 05:21:45;;;;;;;6.80;1.73;;;4.90;99.90;;;;;;5094602;28;20236;-56
2023/03/27 05:24:13;;;;;;;6.87;2.50;;;4.90;99.90;;;;;;5094534;28;20230;-56
2023/03/27 05:26:40;;;;;;;8.97;2.27;;;4.90;99.90;;;;;;5094567;28;20259;-55
2023/03/27 05:29:07;;;;;;;5.70;2.27;;;5.10;99.90;;;;;;5094154;28;20568;-55
2023/03/27 05:31:35;;;;;;;5.30;1.67;;;5.10;99.90;;;;;;5094356;28;20208;-56
2023/03/27 05:34:03;;;;;;;8.10;1.90;;;5.20;99.90;;;;;;5093807;28;20216;-56
2023/03/27 05:36:29;;;;;;;5.10;2.00;;;5.20;99.90;;;;;;5094121;28;20293;-56
2023/03/27 05:38:57;;;;;;;8.53;2.20;;;5.30;99.90;;;;;;5094104;28;20686;-56
2023/03/27 05:41:24;;;;;;;6.83;2.00;;;5.30;99.90;;;;;;5094367;28;20208;-56
2023/03/27 05:43:51;;;;;;;5.13;2.13;;;5.30;99.90;;;;;;5094075;28;20205;-56
2023/03/27 05:46:18;;;;;;;9.93;2.40;;;5.30;99.90;;;;;;5093881;28;20730;-56
2023/03/27 05:48:46;;;;;;;8.10;2.13;;;5.30;99.90;;;;;;5093744;28;20212;-56
2023/03/27 05:51:13;;;;;;;6.13;1.80;;;5.40;99.90;;;;;;5093861;28;20277;-56
2023/03/27 05:53:39;;;;;;;4.60;1.80;;;5.30;99.90;;;;;;5093533;28;20225;-56
2023/03/27 05:56:07;;;;;;;7.60;2.20;;;5.20;99.90;;;;;;5093717;28;20232;-56
2023/03/27 05:58:34;;;;;;;7.23;1.90;;;5.10;99.90;;;;;;5093940;28;20214;-56
2023/03/27 06:01:02;;;;;;;6.73;1.60;;;5.00;99.90;;;;;;5093388;28;20211;-56
2023/03/27 06:03:29;;;;;;;8.53;1.97;;;4.90;99.90;;;;;;5093340;28;20204;-56
2023/03/27 06:05:58;;;;;;;7.20;2.27;;;4.90;99.90;;;;;;5093477;28;20211;-57
2023/03/27 06:08:26;;;;;;;9.93;1.93;;;5.00;99.90;;;;;;5093482;28;20203;-56
2023/03/27 06:10:53;;;;;;;7.57;2.10;;;5.10;99.90;;;;;;5093243;28;20672;-56
2023/03/27 06:13:20;;;;;;;7.80;1.80;;;5.10;99.90;;;;;;5093072;28;20230;-56
2023/03/27 06:15:47;;;;;;;7.80;2.10;;;5.00;99.90;;;;;;5093158;28;20212;-57
2023/03/27 06:18:14;;;;;;;11.50;2.73;;;5.00;99.90;;;;;;5093588;28;20243;-56
2023/03/27 06:20:41;;;;;;;7.20;1.70;;;5.00;99.90;;;;;;5093493;28;20683;-56
2023/03/27 06:23:09;;;;;;;6.00;2.03;;;5.00;99.90;;;;;;5093299;28;20232;-55
2023/03/27 06:25:38;;;;;;;4.17;2.03;;;5.00;99.90;;;;;;5093371;28;20223;-55
2023/03/27 06:28:07;;;;;;;5.27;1.77;;;5.00;99.90;;;;;;5093200;28;20204;-55
2023/03/27 06:30:36;;;;;;;8.53;1.80;;;5.00;99.90;;;;;;5093585;28;20204;-55
2023/03/27 06:33:04;;;;;;;9.63;1.97;;;5.10;99.90;;;;;;5093047;28;20208;-55
2023/03/27 06:35:32;;;;;;;12.63;2.00;;;5.20;99.90;;;;;;5093089;28;20234;-55
2023/03/27 06:38:01;;;;;;;7.47;2.00;;;5.30;99.90;;;;;;5092844;28;20231;-56
2023/03/27 06:40:31;;;;;;;10.80;2.00;;;5.40;99.90;;;;;;5092967;28;20207;-55
2023/03/27 06:43:00;;;;;;;9.70;1.83;;;5.40;99.90;;;;;;5092861;28;20683;-56
2023/03/27 06:45:30;;;;;;;9.13;2.10;;;5.50;99.90;;;;;;5093029;28;20679;-55
2023/03/27 06:47:58;;;;;;;9.13;1.90;;;5.50;99.90;;;;;;5093059;28;20235;-56
2023/03/27 06:50:27;;;;;;;10.37;2.53;;;5.50;99.90;;;;;;5093327;28;20316;-56
2023/03/27 06:52:54;;;;;;;6.17;2.33;;;5.60;99.90;;;;;;5093001;28;20614;-56
2023/03/27 06:55:22;;;;;;;11.17;2.50;;;5.70;99.90;;;;;;5092714;28;20216;-56
2023/03/27 06:57:52;;;;;;;8.40;2.10;;;5.70;99.90;;;;;;5093013;28;20228;-56
2023/03/27 07:00:23;;;;;;;13.77;2.00;;;5.70;99.90;;;;;;5092912;28;20207;-56
2023/03/27 07:02:53;;;;;;;6.03;1.80;;;5.70;99.90;;;;;;5093907;28;20204;-58
2023/03/27 07:05:21;;;;;;;6.73;2.50;;;5.60;99.90;;;;;;5092715;28;20208;-56
2023/03/27 07:07:48;;;;;;;11.00;4.13;;;5.70;99.90;;;;;;5092485;28;20232;-56
2023/03/27 07:10:15;;;;;;;9.83;2.03;;;5.80;99.90;;;;;;5092721;28;20211;-56
2023/03/27 07:12:45;;;;;;;10.33;1.90;;;5.90;99.90;;;;;;5093000;28;20200;-56
2023/03/27 07:15:14;;;;;;;8.37;1.70;;;5.80;99.90;;;;;;5092301;28;20226;-56
2023/03/27 07:17:42;;;;;;;6.40;1.93;;;5.80;99.90;;;;;;5092832;28;20270;-56
2023/03/27 07:20:10;;;;;;;8.17;1.97;;;5.80;99.90;;;;;;5092664;28;20671;-56
2023/03/27 07:22:38;;;;;;;5.43;1.50;;;5.80;99.90;;;;;;5092545;28;20208;-56
2023/03/27 07:25:05;;;;;;;8.70;2.17;;;5.80;99.90;;;;;;5092578;28;20208;-56
2023/03/27 07:27:32;;;;;;;4.70;1.70;;;5.70;99.90;;;;;;5092261;28;20726;-56
2023/03/27 07:30:00;;;;;;;5.80;2.20;;;5.60;99.90;;;;;;5092334;28;20208;-55
2023/03/27 07:32:31;;;;;;;6.27;1.53;;;5.60;99.90;;;;;;5092427;28;20588;-55
2023/03/27 07:34:58;;;;;;;6.90;1.90;;;5.60;99.90;;;;;;5092371;28;20224;-55
2023/03/27 07:37:24;;;;;;;5.97;1.87;;;5.60;99.90;;;;;;5092519;28;20225;-56
2023/03/27 07:39:51;;;;;;;7.50;2.03;;;5.80;99.90;;;;;;5092385;28;20215;-56
2023/03/27 07:42:19;;;;;;;10.37;2.07;;;6.10;99.90;;;;;;5092425;28;20204;-55
2023/03/27 07:44:45;;;;;;;4.93;1.77;;;6.30;99.90;;;;;;5092096;28;20612;-55
2023/03/27 07:47:12;;;;;;;7.33;1.97;;;6.40;99.90;;;;;;5092190;28;20228;-56
2023/03/27 07:49:41;;;;;;;8.97;1.90;;;6.70;99.90;;;;;;5091998;28;20204;-56
2023/03/27 07:52:08;;;;;;;4.27;1.43;;;7.10;99.90;;;;;;5092436;28;20242;-56
2023/03/27 07:54:35;;;;;;;6.37;1.73;;;7.40;99.90;;;;;;5091728;28;20251;-58
2023/03/27 07:57:02;;;;;;;4.43;1.50;;;7.60;99.90;;;;;;5091668;28;20770;-55
2023/03/27 07:59:29;;;;;;;7.33;1.30;;;7.60;99.90;;;;;;5092079;28;20201;-56
2023/03/27 08:01:56;;;;;;;4.97;1.50;;;7.60;99.90;;;;;;5091888;28;20204;-58
2023/03/27 08:04:23;;;;;;;4.17;1.40;;;7.90;99.90;;;;;;5091807;28;20208;-56
2023/03/27 08:06:53;;;;;;;5.67;1.53;;;8.10;99.90;;;;;;5091554;28;20235;-57
2023/03/27 08:09:20;;;;;;;7.30;1.80;;;8.40;99.90;;;;;;5092145;28;20220;-56
2023/03/27 08:11:49;;;;;;;5.53;1.60;;;8.50;99.90;;;;;;5091857;28;20203;-57
2023/03/27 08:14:16;;;;;;;4.97;1.37;;;8.60;99.90;;;;;;5095339;28;20626;-57
2023/03/27 08:16:42;;;;;;;6.20;1.80;;;8.80;99.90;;;;;;5095451;28;20228;-57
2023/03/27 08:19:10;;;;;;;6.27;1.93;;;8.70;99.90;;;;;;5095975;28;20204;-57
2023/03/27 08:21:37;;;;;;;6.27;1.47;;;8.60;99.90;;;;;;5095540;28;20668;-56
2023/03/27 08:24:06;;;;;;;4.03;1.47;;;8.30;99.90;;;;;;5095270;28;20215;-57
2023/03/27 08:26:33;;;;;;;6.90;2.13;;;8.10;99.90;;;;;;5095295;28;20228;-57
2023/03/27 08:28:59;;;;;;;7.13;1.80;;;8.00;99.90;;;;;;5095292;28;20204;-57
2023/03/27 08:31:29;;;;;;;7.27;1.53;;;7.80;99.90;;;;;;5095970;28;20621;-57
2023/03/27 08:33:56;;;;;;;5.63;1.63;;;7.60;99.90;;;;;;5095549;28;20204;-57
2023/03/27 08:36:22;;;;;;;7.17;1.60;;;7.60;99.90;;;;;;5095319;28;20605;-57
2023/03/27 08:38:49;;;;;;;8.60;1.40;;;7.60;99.90;;;;;;5095222;28;20200;-57
2023/03/27 08:41:26;;;;;;;3.43;1.40;;;7.80;99.90;;;;;;5095210;28;20585;-57
2023/03/27 08:43:56;;;;;;;4.43;1.30;;;7.80;99.90;;;;;;5095008;28;20204;-57
2023/03/27 08:46:28;;;;;;;6.63;1.63;;;7.60;99.90;;;;;;5095029;28;20220;-59
2023/03/27 08:48:59;;;;;;;7.43;1.40;;;7.30;99.90;;;;;;5095111;28;20243;-57
2023/03/27 08:51:31;;;;;;;5.53;1.30;;;7.10;99.90;;;;;;5094788;28;20298;-57
2023/03/27 08:54:05;;;;;;;4.40;1.20;;;7.10;99.90;;;;;;5094499;28;20204;-57
2023/03/27 08:56:33;;;;;;;10.23;1.80;;;7.10;99.90;;;;;;5094667;28;20236;-56
2023/03/27 08:59:01;;;;;;;3.73;1.40;;;7.00;99.90;;;;;;5094831;28;20676;-57
2023/03/27 09:01:34;;;;;;;7.47;1.37;;;7.10;99.90;;;;;;5094669;28;20208;-56
2023/03/27 09:04:07;;;;;;;4.47;1.20;;;7.10;99.90;;;;;;5094452;28;20204;-57
2023/03/27 09:06:41;;;;;;;4.80;1.50;;;7.10;99.90;;;;;;5094785;28;20228;-57
2023/03/27 09:09:17;;;;;;;4.73;1.40;;;7.10;99.90;;;;;;5094926;28;20300;-57
2023/03/27 09:11:58;;;;;;;4.57;1.43;;;7.30;99.90;;;;;;5094491;28;20239;-62
2023/03/27 09:14:32;;;;;;;5.10;1.33;;;7.50;99.90;;;;;;5096385;28;20215;-59
2023/03/27 09:17:04;;;;;;;4.17;1.20;;;8.00;99.90;;;;;;5096184;28;20228;-60
2023/03/27 09:19:37;;;;;;;4.60;1.20;;;8.60;99.90;;;;;;5096362;28;20249;-59
2023/03/27 09:22:11;;;;;;;6.70;1.33;;;8.60;99.90;;;;;;5095979;28;20209;-60
2023/03/27 09:24:42;;;;;;;6.00;1.50;;;8.40;99.30;;;;;;5095941;28;20211;-59
2023/03/27 09:27:17;;;;;;;4.83;1.13;;;8.20;99.90;;;;;;5095679;28;20228;-60
2023/03/27 09:29:44;;;;;;;6.73;1.53;;;8.10;99.90;;;;;;5055635;28;20213;-53
2023/03/27 09:32:15;;;;;;;5.37;1.33;;;8.00;99.90;;;;;;5069421;28;20217;-53
2023/03/27 09:34:43;;;;;;;5.70;1.80;;;7.90;99.60;;;;;;5072741;28;20225;-53
2023/03/27 09:37:15;;;;;;;5.33;1.90;;;7.80;99.20;;;;;;5072811;28;20576;-54
2023/03/27 09:39:45;;;;;;;5.87;1.17;;;7.90;99.40;;;;;;5072721;28;20213;-58
2023/03/27 09:42:18;;;;;;;7.37;1.43;;;7.90;98.90;;;;;;5072572;28;20209;-58
2023/03/27 09:44:49;;;;;;;3.07;1.50;;;7.90;98.30;;;;;;5072527;28;20208;-58
2023/03/27 09:47:19;;;;;;;4.87;1.40;;;7.80;98.60;;;;;;5072517;28;20224;-58
2023/03/27 09:49:50;;;;;;;4.77;1.40;;;7.70;99.30;;;;;;5072620;28;20258;-58
2023/03/27 09:52:33;;;;;;;5.13;1.70;;;7.80;99.60;;;;;;5072455;28;20254;-57
2023/03/27 09:55:01;;;;;;;5.57;1.50;;;7.90;98.60;;;;;;5072133;28;20641;-58
2023/03/27 09:57:32;;;;;;;5.00;1.40;;;8.00;98.80;;;;;;5072711;28;20224;-63
2023/03/27 10:00:07;;;;;;;6.00;2.53;;;8.20;98.70;;;;;;5073384;28;20205;-56
2023/03/27 10:02:34;;;;;;;6.10;1.70;;;8.20;98.90;;;;;;5072711;28;20215;-58
2023/03/27 10:05:10;;;;;;;6.70;1.87;;;8.60;98.80;;;;;;5072459;28;20300;-58
2023/03/27 10:07:38;;;;;;;4.90;1.60;;;8.90;99.10;;;;;;5072245;28;20289;-57
2023/03/27 10:10:08;;;;;;;3.10;1.30;;;9.20;98.20;;;;;;5072477;28;20635;-57
2023/03/27 10:12:37;;;;;;;4.53;1.20;;;9.20;96.10;;;;;;5072366;28;20204;-62
2023/03/27 10:15:08;;;;;;;7.27;1.67;;;9.00;95.50;;;;;;5072176;28;20225;-57
2023/03/27 10:17:39;;;;;;;3.77;1.20;;;8.90;95.20;;;;;;5072215;28;20217;-59
2023/03/27 10:20:12;;;;;;;4.87;1.80;;;9.10;95.70;;;;;;5071861;28;20220;-59
2023/03/27 10:22:41;;;;;;;2.80;1.13;;;9.20;96.00;;;;;;5072081;28;20212;-59
2023/03/27 10:25:17;;;;;;;3.13;1.07;;;9.20;95.40;;;;;;5071825;28;20580;-57
2023/03/27 10:27:45;;;;;;;5.37;1.13;;;9.30;94.00;;;;;;5071997;28;20250;-59
2023/03/27 10:30:28;;;;;;;6.43;1.53;;;9.20;93.80;;;;;;5072259;28;20209;-58
2023/03/27 10:32:55;;;;;;;4.40;1.70;;;9.20;93.90;;;;;;5089862;28;20204;-59
2023/03/27 10:35:23;;;;;;;4.70;1.50;;;9.10;95.00;;;;;;5091546;28;20320;-59
2023/03/27 10:37:51;;;;;;;5.70;1.53;;;9.10;95.80;;;;;;5092240;28;20234;-59
2023/03/27 10:40:20;;;;;;;4.67;1.40;;;9.20;95.90;;;;;;5091744;28;20208;-59
2023/03/27 10:42:49;;;;;;;5.33;1.43;;;9.40;96.30;;;;;;5092128;28;20204;-58
2023/03/27 10:45:18;;;;;;;4.33;1.17;;;9.70;96.70;;;;;;5091513;28;20200;-59
2023/03/27 10:47:47;;;;;;;3.90;1.23;;;10.20;95.20;;;;;;5091944;28;20228;-59
2023/03/27 10:50:21;;;;;;;10.63;1.40;;;10.10;93.90;;;;;;5091981;28;20307;-59
2023/03/27 10:52:59;;;;;;;7.37;1.30;;;9.80;95.20;;;;;;5091668;28;20582;-58
2023/03/27 10:55:40;;;;;;;5.93;1.50;;;9.60;95.40;;;;;;5091376;28;20591;-59
2023/03/27 10:58:22;;;;;;;3.53;1.20;;;9.50;95.60;;;;;;5091943;28;20208;-58
2023/03/27 11:00:56;;;;;;;9.47;1.60;;;9.70;94.80;;;;;;5091854;28;20218;-57
2023/03/27 11:03:28;;;;;;;6.97;1.70;;;10.10;95.10;;;;;;5091788;28;20694;-58
2023/03/27 11:05:56;;;;;;;5.53;1.43;;;10.50;94.40;;;;;;5092643;28;20212;-56
2023/03/27 11:08:28;;;;;;;8.27;2.10;;;10.70;92.60;;;;;;5093262;28;20729;-54
2023/03/27 11:10:58;;;;;;;4.60;1.27;;;10.60;92.50;;;;;;5093303;28;20351;-53
2023/03/27 11:13:30;;;;;;;8.30;1.40;;;10.60;91.90;;;;;;5092432;28;20204;-53
2023/03/27 11:16:06;;;;;;;5.50;1.10;;;10.90;92.00;;;;;;5092690;28;20215;-54
2023/03/27 11:18:37;;;;;;;3.80;1.10;;;11.10;91.80;;;;;;5092557;28;20215;-54
2023/03/27 11:21:11;;;;;;;3.23;1.23;;;11.10;91.00;;;;;;5092457;28;20204;-54
2023/03/27 11:23:43;;;;;;;7.10;1.50;;;11.10;91.40;;;;;;5092474;28;20327;-55
2023/03/27 11:26:14;;;;;;;3.83;1.20;;;10.90;90.70;;;;;;5092223;28;20220;-55
2023/03/27 11:28:46;;;;;;;5.73;1.40;;;10.90;90.70;;;;;;5092360;28;20719;-55
2023/03/27 11:31:32;;;;;;;2.73;1.17;;;11.00;90.10;;;;;;5092642;28;20559;-55
2023/03/27 11:34:05;;;;;;;3.83;1.37;;;11.20;89.20;;;;;;5092402;28;20240;-55
2023/03/27 11:36:41;;;;;;;4.47;1.20;;;11.00;88.30;;;;;;5091907;28;20224;-55
2023/03/27 11:39:21;;;;;;;2.70;1.20;;;11.10;88.00;;;;;;5092602;28;20227;-56
2023/03/27 11:41:52;;;;;;;5.83;1.47;;;11.20;91.00;;;;;;5092459;28;20204;-56
2023/03/27 11:44:20;;;;;;;3.73;1.37;;;11.20;91.40;;;;;;5091930;28;20683;-55
2023/03/27 11:47:04;;;;;;;6.70;1.30;;;11.30;91.40;;;;;;5093890;28;20220;-56
2023/03/27 11:49:45;;;;;;;4.50;1.33;;;11.40;90.60;;;;;;5097022;28;20204;-55
2023/03/27 11:52:22;;;;;;;5.93;1.03;;;11.40;88.60;;;;;;5096868;28;20314;-54
2023/03/27 11:55:05;;;;;;;4.77;1.40;;;11.20;90.10;;;;;;5097021;28;20285;-56
2023/03/27 11:57:42;;;;;;;4.17;1.33;;;11.10;90.10;;;;;;5097120;28;20220;-57
2023/03/27 12:00:26;;;;;;;2.40;1.17;;;11.00;88.20;;;;;;5097052;28;20204;-54
2023/03/27 12:03:24;;;;;;;4.73;1.40;;;10.80;89.10;;;;;;5096890;28;20200;-54
2023/03/27 12:06:03;;;;;;;2.97;0.90;;;11.10;90.50;;;;;;5096584;28;20200;-56
2023/03/27 12:08:43;;;;;;;2.97;1.13;;;11.60;90.40;;;;;;5096444;28;20242;-58
2023/03/27 12:11:11;;;;;;;3.00;1.20;;;11.70;88.90;;;;;;5096898;28;20329;-56
2023/03/27 12:14:09;;;;;;;2.33;0.80;;;11.70;88.70;;;;;;5096598;28;20208;-55
2023/03/27 12:17:07;;;;;;;2.50;0.87;;;11.90;87.30;;;;;;5096468;28;20594;-56
2023/03/27 12:20:05;;;;;;;5.20;1.17;;;12.10;83.60;;;;;;5096116;28;20211;-56
2023/03/27 12:22:42;;;;;;;4.53;1.03;;;12.20;84.60;;;;;;5096601;28;20200;-56
2023/03/27 12:25:32;;;;;;;2.13;0.87;;;12.30;84.10;;;;;;5095634;28;20222;-55
2023/03/27 12:28:11;;;;;;;3.27;1.10;;;12.20;84.60;;;;;;5095787;28;20315;-55
2023/03/27 12:30:47;;;;;;;10.50;4.73;;;12.50;85.60;;;;;;5095687;28;20651;-55
2023/03/27 12:33:32;;;;;;;2.93;1.10;;;12.70;82.70;;;;;;5095989;28;20195;-55
2023/03/27 12:36:02;;;;;;;3.63;1.10;;;12.60;83.80;;;;;;5095293;28;20232;-55
2023/03/27 12:38:31;;;;;;;3.73;0.93;;;12.50;84.10;;;;;;5095845;28;20656;-56
2023/03/27 12:41:05;;;;;;;3.17;1.07;;;12.50;82.10;;;;;;5095609;28;20246;-55
2023/03/27 12:43:38;;;;;;;6.37;3.30;;;12.60;84.00;;;;;;5095540;28;20199;-55
2023/03/27 12:46:11;;;;;;;2.67;0.70;;;12.60;83.10;;;;;;5095527;28;20252;-55
2023/03/27 12:49:04;;;;;;;3.17;0.90;;;12.90;81.30;;;;;;5095723;28;20215;-55
2023/03/27 12:51:46;;;;;;;3.10;1.00;;;13.20;83.30;;;;;;5095838;28;20266;-56
2023/03/27 12:54:24;;;;;;;4.27;1.30;;;13.40;82.10;;;;;;5095565;28;20637;-55
2023/03/27 12:56:58;;;;;;;3.37;1.00;;;13.60;79.90;;;;;;5095061;28;20288;-56
2023/03/27 12:59:28;;;;;;;1.97;0.97;;;13.80;80.10;;;;;;5094246;28;20204;-56
2023/03/27 13:02:40;;;;;;;4.10;1.20;;;13.50;78.60;;;;;;5094929;28;20227;-55
2023/03/27 13:05:58;;;;;;;5.03;0.97;;;13.20;81.70;;;;;;5094823;28;20204;-55
2023/03/27 13:08:54;;;;;;;4.20;1.00;;;13.00;80.10;;;;;;5094842;28;20204;-55
2023/03/27 13:11:36;;;;;;;3.10;0.73;;;12.70;81.80;;;;;;5089925;28;20215;-55
2023/03/27 13:14:21;;;;;;;2.53;0.70;;;12.40;78.70;;;;;;5094658;28;20208;-55
2023/03/27 13:16:58;;;;;;;2.40;0.90;;;11.90;78.60;;;;;;5094506;28;20228;-55